Flight Track Log - Related Links

Times and Time Zones

All times are in EDT time to prevent confusion due to time zone crossing. See the SKW7363 flight status page for this flight to view local times or setup timezone preferences in your user account.

Time Position Orientation Groundspeed Altitude Reporting Facility
EDT Latitude Longitude Course Direction KTS MPH feet Rate Location/Type
Wed 02:15:00 PM 45.3888 -97.7404 113° Southeast  Level Estimated
Wed 02:16:00 PM 45.3762 -97.6042 112° Southeast  Level Estimated
Wed 02:16:31 PM 45.4250 -98.3231 140° Southeast 231 266 6,900  Level Minneapolis Center
Wed 02:17:00 PM 45.3171 -96.9859 113° Southeast  Level Estimated
Wed 02:17:33 PM 45.3886 -98.2150 116° Southeast 276 318 9,200  Level Minneapolis Center
Wed 02:18:00 PM 45.0755 -96.4666 123° Southeast  Level FlightAware Approximate
Wed 02:18:35 PM 45.3553 -98.0983 112° Southeast 309 356 11,600  Level Minneapolis Center
Wed 02:19:00 PM 45.0458 -95.8471 76° East  Level Estimated
Wed 02:19:37 PM 45.3181 -97.9669 112° Southeast 335 386 14,100  Level Minneapolis Center
Wed 02:20:00 PM 45.0127 -95.2284 72° East  Level Estimated
Wed 02:20:39 PM 45.2817 -97.8397 112° Southeast 347 399 16,600  Level Minneapolis Center
Wed 02:21:41 PM 45.2436 -97.7067 112° Southeast 360 414 18,000 1,355 Climbing Minneapolis Center
Wed 02:22:43 PM 45.2022 -97.5644 112° Southeast 385 443 19,400 1,597 Climbing Minneapolis Center
Wed 02:23:45 PM 45.1611 -97.4172 112° Southeast 400 460 21,300 1,805 Climbing Minneapolis Center
Wed 02:24:46 PM 45.1097 -97.2397 112° Southeast 406 467 23,100 1,463 Climbing Minneapolis Center
Wed 02:25:48 PM 45.0628 -97.0861 113° Southeast 420 483 24,300 1,113 Climbing Minneapolis Center
Wed 02:26:50 PM 45.0169 -96.9292 112° Southeast 429 494 25,400 1,065 Climbing Minneapolis Center
Wed 02:27:52 PM 44.9619 -96.7714 116° Southeast 444 511 26,500 774 Climbing Minneapolis Center
Wed 02:28:54 PM 44.8408 -96.7000 157° South 470 541 27,000 242 Climbing Minneapolis Center
Wed 02:29:56 PM 44.7167 -96.6317 159° South 478 550 27,000  Level Minneapolis Center
Wed 02:30:58 PM 44.5681 -96.5497 159° South 478 550 27,000  Level Minneapolis Center
Wed 02:32:01 PM 44.4467 -96.4806 158° South 475 547 27,000  Level Minneapolis Center
Wed 02:33:03 PM 44.3244 -96.4111 158° South 478 550 27,000  Level Minneapolis Center
Wed 02:34:05 PM 44.2044 -96.3428 158° South 475 547 27,000  Level Minneapolis Center
Wed 02:35:07 PM 44.0636 -96.2600 157° South 476 548 27,000 -145 Level Minneapolis Center
Wed 02:36:09 PM 43.9869 -96.1203 127° Southeast 481 554 26,700 -339 Descending Minneapolis Center
Wed 02:37:11 PM 44.0147 -95.9739 75° East 413 475 26,300 -435 Descending Minneapolis Center
Wed 02:38:13 PM 44.0794 -95.8600 52° Northeast 382 440 25,800 -720 Descending Minneapolis Center
Wed 02:39:16 PM 44.1608 -95.7128 52° Northeast 401 461 24,800 -864 Descending Minneapolis Center
Wed 02:40:18 PM 44.2281 -95.5869 53° Northeast 408 470 24,000 -387 Descending Minneapolis Center
Wed 02:41:20 PM 44.2922 -95.4678 53° Northeast 395 455 24,000  Level Minneapolis Center
Wed 02:42:22 PM 44.3553 -95.3478 54° Northeast 387 445 24,000  Level Minneapolis Center
Wed 02:43:24 PM 44.4208 -95.2244 53° Northeast 394 453 24,000  Level Minneapolis Center
Wed 02:44:26 PM 44.4858 -95.0622 61° Northeast 401 461 24,000  Level Minneapolis Center
Wed 02:45:28 PM 44.5203 -94.9083 73° East 414 476 24,000 -1,016 Level Minneapolis Center
Wed 02:46:30 PM 44.5561 -94.7589 71° East 409 471 21,900 -2,274 Descending Minneapolis Center
Wed 02:47:32 PM 44.5939 -94.6008 71° East 398 458 19,300 -2,371 Descending Minneapolis Center
Wed 02:48:34 PM 44.6250 -94.4642 72° East 373 429 17,000 -2,304 Descending Minneapolis Center
Wed 02:49:37 PM 44.6547 -94.3325 72° East 356 410 14,500 -2,400 Descending Minneapolis Center
Wed 02:50:39 PM 44.6839 -94.2036 72° East 343 395 12,000 -1,694 Descending Minneapolis Center
Wed 02:51:41 PM 44.7117 -94.0797 72° East 333 383 11,000 -484 Descending Minneapolis Center
Wed 02:52:43 PM 44.7394 -93.9558 72° East 336 387 11,000  Level Minneapolis Center
Wed 02:53:45 PM 44.7717 -93.8083 73° East 329 379 11,000  Level Minneapolis Center
Wed 02:54:47 PM 44.7992 -93.6853 72° East 330 380 11,000 -48 Level Minneapolis Center
Wed 02:55:49 PM 44.8264 -93.5608 73° East 333 383 10,900 -629 Descending Minneapolis Center
Wed 02:56:51 PM 44.8511 -93.4486 73° East 304 350 9,700 -1,355 Descending Minneapolis Center
Wed 02:57:53 PM 44.8372 -93.3442 101° East 294 338 8,100 -1,355 Descending Minneapolis Center
Wed 02:58:55 PM 44.7933 -93.2467 122° Southeast 292 336 6,900 -1,452 Descending Minneapolis Center
Wed 02:59:57 PM 44.7586 -93.1478 116° Southeast 275 316 5,100 -1,824 Descending Minneapolis Center
Wed 03:01:00 PM 44.7881 -93.0681 62° Northeast 252 290 3,100 -1,200 Descending Minneapolis Center
Wed 03:02:02 PM 44.8397 -93.0983 337° Northwest 172 198 2,600 -629 Descending Minneapolis Center
Wed 03:03:04 PM 44.8583 -93.1417 301° West 133 153 1,800 -726 Descending Minneapolis Center
Wed 03:04:06 PM 44.8772 -93.1839 302° West 129 148 1,100 -677 Descending Minneapolis Center

Login

Don't have an account? Register now (free) for customized features, flight alerts, and more!